createdAt,value
2018-05-04T00:00:55.248Z,64.67
2018-05-04T00:03:22.937Z,65.85
2018-05-04T00:05:54.686Z,66.94
2018-05-04T00:08:27.059Z,67.79
2018-05-04T00:10:59.284Z,67.51
2018-05-04T00:13:26.991Z,66.48
2018-05-04T00:15:54.673Z,65.34
2018-05-04T00:18:22.479Z,65.76
2018-05-04T00:20:50.309Z,65.69
2018-05-04T00:23:17.938Z,65.62
2018-05-04T00:25:45.597Z,65.06
2018-05-04T00:28:13.249Z,65.17
2018-05-04T00:30:40.837Z,65.34
2018-05-04T00:33:08.501Z,65.10
2018-05-04T00:35:36.103Z,64.62
2018-05-04T00:38:03.769Z,64.42
2018-05-04T00:40:31.402Z,64.86
2018-05-04T00:42:59.105Z,65.37
2018-05-04T00:45:27.816Z,65.96
2018-05-04T00:47:55.513Z,65.93
2018-05-04T00:50:23.211Z,65.88
2018-05-04T00:52:50.963Z,66.69
2018-05-04T00:55:18.630Z,66.42
2018-05-04T00:57:46.442Z,66.61
2018-05-04T01:00:15.324Z,66.14
2018-05-04T01:02:55.561Z,66.82
2018-05-04T01:05:35.119Z,67.10
2018-05-04T01:08:07.956Z,67.32
2018-05-04T01:10:39.475Z,68.00
2018-05-04T01:13:09.363Z,67.70
2018-05-04T01:15:39.642Z,67.35
2018-05-04T01:18:09.599Z,67.30
2018-05-04T01:20:38.632Z,66.94
2018-05-04T01:23:11.855Z,66.69
2018-05-04T01:25:42.614Z,66.51
2018-05-04T01:30:51.056Z,67.59
2018-05-04T01:33:21.958Z,67.97
2018-05-04T01:35:51.935Z,67.87
2018-05-04T01:38:30.104Z,67.69
2018-05-04T01:41:06.306Z,67.83
2018-05-04T01:43:37.353Z,68.17
2018-05-04T01:46:07.869Z,68.34
2018-05-04T01:48:40.527Z,68.83
2018-05-04T01:51:09.622Z,68.86
2018-05-04T01:53:37.992Z,68.78
2018-05-04T01:56:06.181Z,68.92
2018-05-04T01:58:34.212Z,68.68
2018-05-04T02:01:04.266Z,69.46
2018-05-04T02:03:32.414Z,69.41
2018-05-04T02:06:00.582Z,69.37
2018-05-04T02:08:29.293Z,68.77
2018-05-04T02:10:57.161Z,69.21
2018-05-04T02:13:25.312Z,68.80
2018-05-04T02:15:54.416Z,70.05
2018-05-04T02:18:22.113Z,70.51
2018-05-04T02:20:50.297Z,70.32
2018-05-04T02:23:18.102Z,69.61
2018-05-04T02:25:48.223Z,69.48
2018-05-04T02:28:15.975Z,71.36
2018-05-04T02:30:43.604Z,71.24
2018-05-04T02:33:11.337Z,71.36
2018-05-04T02:35:38.961Z,70.28
2018-05-04T02:38:06.618Z,71.05
2018-05-04T02:40:34.301Z,71.75
2018-05-04T02:43:01.989Z,71.40
2018-05-04T02:45:29.617Z,70.99
2018-05-04T02:47:57.280Z,70.32
2018-05-04T02:50:24.912Z,70.17
2018-05-04T02:52:52.575Z,70.93
2018-05-04T02:55:20.220Z,70.35
2018-05-04T02:57:47.959Z,70.75
2018-05-04T03:00:15.697Z,70.63
2018-05-04T03:02:43.472Z,70.33
2018-05-04T03:05:11.185Z,69.25
2018-05-04T03:07:38.885Z,69.73
2018-05-04T03:10:06.554Z,69.60
2018-05-04T03:12:34.512Z,69.56
2018-05-04T03:15:02.193Z,69.15
2018-05-04T03:17:29.805Z,69.66
2018-05-04T03:19:57.465Z,69.81
2018-05-04T03:22:25.280Z,69.93
2018-05-04T03:24:52.930Z,69.15
2018-05-04T03:27:20.550Z,68.99
2018-05-04T03:29:48.205Z,68.89
2018-05-04T03:32:15.868Z,70.43
2018-05-04T03:34:43.482Z,70.07
2018-05-04T03:37:11.196Z,70.24
2018-05-04T03:39:38.805Z,70.75
2018-05-04T03:42:06.466Z,71.42
2018-05-04T03:44:34.076Z,71.54
2018-05-04T03:47:01.725Z,71.29
2018-05-04T03:49:29.337Z,71.41
2018-05-04T03:51:56.989Z,71.82
2018-05-04T03:54:24.624Z,71.67
2018-05-04T03:56:52.253Z,72.63
2018-05-04T03:59:31.508Z,72.71
2018-05-04T04:02:10.777Z,73.02
2018-05-04T04:04:38.381Z,73.75
2018-05-04T04:07:06.018Z,74.41
2018-05-04T04:09:33.616Z,73.64
2018-05-04T04:12:01.289Z,72.63
2018-05-04T04:14:28.881Z,72.59
2018-05-04T04:16:56.464Z,71.96
2018-05-04T04:19:24.083Z,72.03
2018-05-04T04:21:51.696Z,71.74
2018-05-04T04:24:20.913Z,72.17
2018-05-04T04:26:48.513Z,72.10
2018-05-04T04:29:16.137Z,72.28
2018-05-04T04:31:43.725Z,72.22
2018-05-04T04:34:11.461Z,71.79
2018-05-04T04:36:39.065Z,72.43
2018-05-04T04:39:06.728Z,71.08
2018-05-04T04:41:34.330Z,72.32
2018-05-04T04:44:01.977Z,72.47
2018-05-04T04:46:29.583Z,73.02
2018-05-04T04:48:57.206Z,73.24
2018-05-04T04:51:24.800Z,73.70
2018-05-04T04:53:52.448Z,73.22
2018-05-04T04:56:20.058Z,73.79
2018-05-04T04:58:47.750Z,74.54
2018-05-04T05:01:15.407Z,74.32
2018-05-04T05:03:42.994Z,74.01
2018-05-04T05:06:10.645Z,73.27
2018-05-04T05:08:38.231Z,72.62
2018-05-04T05:11:05.948Z,72.71
2018-05-04T05:13:33.743Z,74.26
2018-05-04T05:16:01.280Z,74.61
2018-05-04T05:18:28.880Z,74.76
2018-05-04T05:20:56.523Z,74.92
2018-05-04T05:23:24.134Z,75.48
2018-05-04T05:25:51.761Z,76.20
2018-05-04T05:28:19.352Z,76.31
2018-05-04T05:30:47.061Z,76.82
2018-05-04T05:33:14.671Z,76.78
2018-05-04T05:35:42.492Z,76.41
2018-05-04T05:38:10.088Z,75.63
2018-05-04T05:40:37.725Z,74.96
2018-05-04T05:43:05.330Z,74.34
2018-05-04T05:45:33.037Z,73.92
2018-05-04T05:48:00.711Z,73.84
2018-05-04T05:50:28.411Z,73.95
2018-05-04T05:52:56.052Z,74.29
2018-05-04T05:55:23.644Z,74.50
2018-05-04T05:57:51.364Z,74.15
2018-05-04T06:00:19.010Z,73.30
2018-05-04T06:02:46.822Z,72.67
2018-05-04T06:05:14.596Z,72.02
2018-05-04T06:07:43.823Z,71.12
2018-05-04T06:10:11.725Z,70.55
2018-05-04T06:12:41.571Z,70.11
2018-05-04T06:15:10.359Z,68.89
2018-05-04T06:17:38.321Z,68.19
2018-05-04T06:20:06.121Z,67.48
2018-05-04T06:22:33.965Z,67.41
2018-05-04T06:25:02.043Z,67.28
2018-05-04T06:27:29.826Z,67.13
2018-05-04T06:29:57.810Z,66.37
2018-05-04T06:32:26.357Z,66.28
2018-05-04T06:34:54.231Z,66.27
2018-05-04T06:37:27.692Z,66.86
2018-05-04T06:39:55.780Z,66.40
2018-05-04T06:42:24.178Z,66.07
2018-05-04T06:44:51.942Z,65.74
2018-05-04T06:47:19.754Z,64.36
2018-05-04T06:49:47.583Z,57.48
2018-05-04T06:52:16.369Z,57.79
2018-05-04T06:54:45.037Z,58.09
2018-05-04T06:57:14.338Z,56.82
2018-05-04T06:59:42.100Z,55.68
2018-05-04T07:02:09.822Z,54.19
2018-05-04T07:04:48.497Z,55.19
2018-05-04T07:07:24.290Z,54.58
2018-05-04T07:09:52.422Z,55.17
2018-05-04T07:12:20.071Z,55.69
2018-05-04T07:14:47.752Z,54.86
2018-05-04T07:17:15.407Z,54.29
2018-05-04T07:19:43.032Z,54.05
2018-05-04T07:22:10.761Z,52.94
2018-05-04T07:24:38.411Z,53.51
2018-05-04T07:27:06.059Z,53.57
2018-05-04T07:29:34.009Z,54.85
2018-05-04T07:32:01.721Z,54.48
2018-05-04T07:34:29.510Z,53.68
2018-05-04T07:36:57.292Z,53.52
2018-05-04T07:39:25.009Z,53.44
2018-05-04T07:41:52.689Z,53.10
2018-05-04T07:44:24.494Z,52.57
2018-05-04T07:46:54.302Z,52.74
2018-05-04T07:49:21.917Z,53.04
2018-05-04T07:51:49.678Z,53.17
2018-05-04T07:54:17.525Z,52.94
2018-05-04T07:56:45.265Z,52.98
2018-05-04T07:59:13.080Z,53.09
2018-05-04T08:01:40.899Z,53.73
2018-05-04T08:04:08.546Z,51.78
2018-05-04T08:06:36.162Z,52.64
2018-05-04T08:09:03.861Z,52.55
2018-05-04T08:11:31.549Z,51.37
2018-05-04T08:13:59.281Z,51.42
2018-05-04T08:16:27.020Z,51.85
2018-05-04T08:18:57.731Z,51.68
2018-05-04T08:21:25.468Z,51.62
2018-05-04T08:23:53.113Z,51.72
2018-05-04T08:26:21.094Z,51.20
2018-05-04T08:28:48.752Z,51.50
2018-05-04T08:31:16.924Z,51.03
2018-05-04T08:33:44.598Z,51.04
2018-05-04T08:36:12.288Z,51.45
2018-05-04T08:38:40.363Z,51.38
2018-05-04T08:41:08.032Z,51.16
2018-05-04T08:43:35.876Z,50.16
2018-05-04T08:46:05.765Z,51.15
2018-05-04T08:48:33.459Z,50.70
2018-05-04T08:51:01.162Z,51.00
2018-05-04T08:53:29.065Z,51.28
2018-05-04T08:55:56.714Z,50.92
2018-05-04T08:58:24.371Z,50.83
2018-05-04T09:00:56.226Z,50.06
2018-05-04T09:03:24.146Z,49.60
2018-05-04T09:05:52.033Z,49.48
2018-05-04T09:08:19.802Z,49.28
2018-05-04T09:10:47.645Z,49.08
2018-05-04T09:13:15.350Z,49.14
2018-05-04T09:15:43.068Z,49.11
2018-05-04T09:18:10.817Z,48.00
2018-05-04T09:20:39.015Z,47.25
2018-05-04T09:23:06.661Z,45.94
2018-05-04T09:25:34.352Z,46.10
2018-05-04T09:28:02.113Z,45.59
2018-05-04T09:30:29.878Z,45.40
2018-05-04T09:32:57.685Z,44.45
2018-05-04T09:35:25.613Z,44.29
2018-05-04T09:37:53.241Z,44.01
2018-05-04T09:40:20.972Z,44.37
2018-05-04T09:42:48.689Z,44.77
2018-05-04T09:45:16.341Z,44.37
2018-05-04T09:47:44.113Z,42.97
2018-05-04T09:50:11.738Z,43.17
2018-05-04T09:52:39.429Z,44.07
2018-05-04T09:55:07.032Z,44.62
2018-05-04T09:57:34.657Z,44.45
2018-05-04T10:00:02.934Z,43.10
2018-05-04T10:02:30.590Z,41.73
2018-05-04T10:04:58.202Z,41.21
2018-05-04T10:07:27.056Z,40.74
2018-05-04T10:09:54.949Z,40.67
2018-05-04T10:12:23.175Z,40.28
2018-05-04T10:14:50.905Z,40.12
2018-05-04T10:17:18.576Z,39.50
2018-05-04T10:19:46.190Z,39.88
2018-05-04T10:22:13.900Z,39.96
2018-05-04T10:24:41.526Z,38.99
2018-05-04T10:27:09.309Z,39.04
2018-05-04T10:29:36.951Z,38.90
2018-05-04T10:32:04.545Z,38.26
2018-05-04T10:34:32.317Z,38.99
2018-05-04T10:37:00.069Z,38.44
2018-05-04T10:39:27.739Z,36.04
2018-05-04T10:41:55.345Z,36.08
2018-05-04T10:44:23.025Z,34.81
2018-05-04T10:46:50.739Z,35.23
2018-05-04T10:49:18.425Z,35.27
2018-05-04T10:51:46.018Z,35.55
2018-05-04T10:54:13.724Z,33.94
2018-05-04T10:56:41.372Z,33.95
2018-05-04T10:59:09.016Z,34.46
2018-05-04T11:01:36.727Z,33.34
2018-05-04T11:04:04.351Z,32.60
2018-05-04T11:06:32.004Z,33.49
2018-05-04T11:08:59.635Z,32.72
2018-05-04T11:11:27.297Z,34.15
2018-05-04T11:13:54.882Z,32.85
2018-05-04T11:16:22.539Z,33.07
2018-05-04T11:18:50.162Z,32.06
2018-05-04T11:21:17.789Z,32.95
2018-05-04T11:23:45.397Z,32.87
2018-05-04T11:26:13.050Z,32.92
2018-05-04T11:28:40.673Z,30.78
2018-05-04T11:31:08.302Z,30.84
2018-05-04T11:33:35.920Z,31.52
2018-05-04T11:36:03.616Z,30.85
2018-05-04T11:38:31.237Z,31.01
2018-05-04T11:40:58.868Z,31.03
2018-05-04T11:43:26.466Z,30.68
2018-05-04T11:45:54.113Z,30.52
2018-05-04T11:48:21.890Z,31.23
2018-05-04T11:50:49.550Z,30.44
2018-05-04T11:53:17.482Z,29.71
2018-05-04T11:55:45.078Z,29.18
2018-05-04T11:58:12.763Z,29.19
2018-05-04T12:00:40.404Z,30.50
2018-05-04T12:03:08.022Z,28.35
2018-05-04T12:05:35.730Z,28.36
2018-05-04T12:08:03.383Z,27.65
2018-05-04T12:10:30.992Z,28.32
2018-05-04T12:12:58.620Z,27.17
2018-05-04T12:15:26.256Z,28.01
2018-05-04T12:17:54.084Z,29.38
2018-05-04T12:20:21.664Z,28.76
2018-05-04T12:22:49.323Z,28.87
2018-05-04T12:25:16.937Z,28.24
2018-05-04T12:27:44.591Z,28.24
2018-05-04T12:30:12.185Z,28.32
2018-05-04T12:32:39.816Z,28.91
2018-05-04T12:35:07.412Z,29.06
2018-05-04T12:37:35.068Z,28.63
2018-05-04T12:40:02.807Z,28.06
2018-05-04T12:42:30.433Z,30.04
2018-05-04T12:44:58.092Z,29.68
2018-05-04T12:47:25.685Z,30.52
2018-05-04T12:49:53.329Z,30.78
2018-05-04T12:52:20.961Z,30.55
2018-05-04T12:54:48.615Z,29.97
2018-05-04T12:57:16.213Z,29.30
2018-05-04T12:59:43.845Z,29.98
2018-05-04T13:02:11.453Z,30.95
2018-05-04T13:04:39.079Z,30.35
2018-05-04T13:07:06.680Z,30.34
2018-05-04T13:09:34.360Z,30.25
2018-05-04T13:12:02.011Z,31.02
2018-05-04T13:14:29.639Z,30.87
2018-05-04T13:16:57.293Z,30.82
2018-05-04T13:19:25.003Z,31.03
2018-05-04T13:21:52.629Z,31.21
2018-05-04T13:24:20.289Z,31.20
2018-05-04T13:26:47.906Z,30.33
2018-05-04T13:29:15.568Z,29.95
2018-05-04T13:31:43.238Z,30.46
2018-05-04T13:34:10.845Z,29.99
2018-05-04T13:36:38.518Z,30.04
2018-05-04T13:39:06.102Z,30.43
2018-05-04T13:41:33.959Z,30.71
2018-05-04T13:44:01.581Z,30.65
2018-05-04T13:46:29.237Z,29.99
2018-05-04T13:48:56.901Z,31.01
2018-05-04T13:51:24.610Z,31.39
2018-05-04T13:53:52.187Z,29.52
2018-05-04T13:56:19.828Z,28.70
2018-05-04T13:58:47.444Z,29.36
2018-05-04T14:01:15.185Z,28.09
2018-05-04T14:03:42.652Z,28.73
2018-05-04T14:06:10.283Z,29.10
2018-05-04T14:08:37.942Z,29.37
2018-05-04T14:11:05.613Z,30.10
2018-05-04T14:13:33.213Z,29.51
2018-05-04T14:16:00.842Z,29.22
2018-05-04T14:18:28.534Z,29.12
2018-05-04T14:20:56.132Z,29.32
2018-05-04T14:23:23.763Z,29.28
2018-05-04T14:25:51.354Z,29.03
2018-05-04T14:28:19.004Z,29.14
2018-05-04T14:30:46.588Z,28.63
2018-05-04T14:33:14.255Z,28.96
2018-05-04T14:35:41.842Z,29.06
2018-05-04T14:38:09.581Z,29.33
2018-05-04T14:40:37.198Z,30.02
2018-05-04T14:43:04.887Z,29.61
2018-05-04T14:45:32.553Z,29.21
2018-05-04T14:48:00.201Z,28.80
2018-05-04T14:50:27.818Z,28.74
2018-05-04T14:52:55.517Z,28.60
2018-05-04T14:55:23.124Z,28.40
2018-05-04T14:57:50.770Z,28.01
2018-05-04T15:00:18.418Z,28.39
2018-05-04T15:02:46.066Z,28.95
2018-05-04T15:05:13.802Z,28.76
2018-05-04T15:07:41.406Z,27.87
2018-05-04T15:10:09.056Z,28.98
2018-05-04T15:12:36.678Z,29.35
2018-05-04T15:15:04.295Z,29.07
2018-05-04T15:17:31.889Z,28.80
2018-05-04T15:19:59.525Z,28.00
2018-05-04T15:22:27.100Z,28.22
2018-05-04T15:24:54.794Z,28.71
2018-05-04T15:27:22.344Z,28.19
2018-05-04T15:29:49.993Z,28.10
2018-05-04T15:32:17.662Z,28.07
2018-05-04T15:34:45.362Z,27.35
2018-05-04T15:37:12.994Z,28.50
2018-05-04T15:39:40.644Z,27.70
2018-05-04T15:42:08.245Z,27.80
2018-05-04T15:44:35.977Z,27.85
2018-05-04T15:47:03.589Z,26.81
2018-05-04T15:49:31.203Z,27.45
2018-05-04T15:52:04.281Z,27.38
2018-05-04T15:54:31.958Z,27.33
2018-05-04T15:56:59.629Z,27.95
2018-05-04T15:59:27.226Z,27.81
2018-05-04T16:01:54.854Z,28.42
2018-05-04T16:04:22.469Z,28.16
2018-05-04T16:06:50.207Z,28.09
2018-05-04T16:09:17.792Z,26.89
2018-05-04T16:11:45.436Z,28.42
2018-05-04T16:14:13.030Z,28.00
2018-05-04T16:16:40.661Z,27.84
2018-05-04T16:19:08.317Z,27.83
2018-05-04T16:21:35.950Z,27.73
2018-05-04T16:24:03.561Z,27.48
2018-05-04T16:26:31.230Z,27.40
2018-05-04T16:28:58.885Z,28.12
2018-05-04T16:31:26.454Z,27.61
2018-05-04T16:33:54.126Z,28.84
2018-05-04T16:36:21.720Z,27.95
2018-05-04T16:38:49.434Z,28.46
2018-05-04T16:41:16.992Z,28.24
2018-05-04T16:43:44.633Z,26.96
2018-05-04T16:46:17.698Z,28.43
2018-05-04T16:48:50.802Z,28.91
2018-05-04T16:51:18.447Z,28.01
2018-05-04T16:53:46.087Z,27.88
2018-05-04T16:56:13.690Z,28.82
2018-05-04T16:58:41.359Z,28.64
2018-05-04T17:01:08.988Z,27.56
2018-05-04T17:03:36.616Z,27.88
2018-05-04T17:06:04.280Z,27.69
2018-05-04T17:08:31.925Z,27.34
2018-05-04T17:10:59.520Z,28.17
2018-05-04T17:13:28.153Z,27.85
2018-05-04T17:15:55.803Z,27.88
2018-05-04T17:18:23.445Z,29.09
2018-05-04T17:20:51.027Z,28.81
2018-05-04T17:23:18.639Z,29.48
2018-05-04T17:25:46.341Z,28.30
2018-05-04T17:28:13.995Z,28.74
2018-05-04T17:30:41.790Z,30.20
2018-05-04T17:33:09.380Z,29.94
2018-05-04T17:35:37.010Z,29.66
2018-05-04T17:38:04.602Z,30.65
2018-05-04T17:40:32.945Z,29.96
2018-05-04T17:43:00.448Z,30.65
2018-05-04T17:45:28.143Z,31.16
2018-05-04T17:47:55.776Z,30.71
2018-05-04T17:50:23.464Z,30.93
2018-05-04T17:52:51.061Z,31.92
2018-05-04T17:55:18.701Z,31.42
2018-05-04T17:57:46.309Z,33.03
2018-05-04T18:00:13.964Z,32.32
2018-05-04T18:02:41.561Z,32.17
2018-05-04T18:05:09.165Z,33.12
2018-05-04T18:07:36.806Z,33.65
2018-05-04T18:10:04.409Z,33.62
2018-05-04T18:12:32.073Z,33.85
2018-05-04T18:14:59.685Z,34.61
2018-05-04T18:17:27.468Z,35.39
2018-05-04T18:19:55.003Z,34.90
2018-05-04T18:22:22.643Z,35.49
2018-05-04T18:24:50.243Z,35.68
2018-05-04T18:27:17.973Z,36.15
2018-05-04T18:29:45.586Z,36.33
2018-05-04T18:32:13.239Z,36.92
2018-05-04T18:34:40.846Z,36.63
2018-05-04T18:37:08.496Z,36.63
2018-05-04T18:39:36.229Z,36.25
2018-05-04T18:42:04.848Z,37.25
2018-05-04T18:44:32.457Z,36.40
2018-05-04T18:47:00.097Z,37.20
2018-05-04T18:49:27.726Z,36.74
2018-05-04T18:51:55.382Z,37.40
2018-05-04T18:54:22.994Z,37.33
2018-05-04T18:56:50.689Z,37.50
2018-05-04T18:59:18.331Z,37.27
2018-05-04T19:01:45.948Z,37.51
2018-05-04T19:04:13.707Z,37.70
2018-05-04T19:06:41.563Z,37.32
2018-05-04T19:09:09.199Z,38.17
2018-05-04T19:11:36.854Z,38.26
2018-05-04T19:14:04.486Z,38.49
2018-05-04T19:16:32.121Z,38.88
2018-05-04T19:18:59.792Z,39.25
2018-05-04T19:21:27.433Z,39.09
2018-05-04T19:23:55.102Z,39.66
2018-05-04T19:26:22.726Z,39.96
2018-05-04T19:28:50.363Z,40.60
2018-05-04T19:31:17.961Z,40.20
2018-05-04T19:33:45.610Z,40.79
2018-05-04T19:36:13.240Z,41.15
2018-05-04T19:38:40.887Z,41.23
2018-05-04T19:41:08.510Z,41.45
2018-05-04T19:43:36.153Z,41.63
2018-05-04T19:46:03.752Z,41.78
2018-05-04T19:48:31.389Z,41.81
2018-05-04T19:50:59.021Z,42.13
2018-05-04T19:53:26.632Z,42.54
2018-05-04T19:55:54.288Z,42.37
2018-05-04T19:58:21.906Z,42.80
2018-05-04T20:00:49.592Z,42.87
2018-05-04T20:03:17.189Z,42.76
2018-05-04T20:05:44.839Z,43.01
2018-05-04T20:08:12.439Z,43.36
2018-05-04T20:10:40.099Z,43.00
2018-05-04T20:13:07.736Z,43.03
2018-05-04T20:15:35.398Z,43.63
2018-05-04T20:18:03.051Z,43.72
2018-05-04T20:20:30.665Z,43.40
2018-05-04T20:22:58.819Z,43.93
2018-05-04T20:25:26.466Z,44.22
2018-05-04T20:27:54.931Z,43.76
2018-05-04T20:30:22.498Z,44.52
2018-05-04T20:32:50.946Z,44.67
2018-05-04T20:35:19.474Z,44.52
2018-05-04T20:37:47.637Z,44.39
2018-05-04T20:40:15.233Z,44.63
2018-05-04T20:42:44.510Z,44.41
2018-05-04T20:45:12.108Z,44.51
2018-05-04T20:47:39.745Z,44.89
2018-05-04T20:50:07.345Z,44.98
2018-05-04T20:52:35.013Z,45.17
2018-05-04T20:55:02.641Z,44.75
2018-05-04T20:57:30.289Z,45.09
2018-05-04T20:59:57.913Z,45.02
2018-05-04T21:02:25.569Z,45.71
2018-05-04T21:04:53.179Z,45.64
2018-05-04T21:07:20.818Z,45.12
2018-05-04T21:09:48.431Z,45.43
2018-05-04T21:12:16.262Z,45.95
2018-05-04T21:14:43.864Z,46.11
2018-05-04T21:17:11.508Z,46.21
2018-05-04T21:19:39.268Z,45.92
2018-05-04T21:22:06.874Z,46.17
2018-05-04T21:24:34.529Z,45.41
2018-05-04T21:27:02.146Z,44.45
2018-05-04T21:29:29.789Z,45.07
2018-05-04T21:31:57.440Z,44.99
2018-05-04T21:34:25.164Z,45.19
2018-05-04T21:36:52.776Z,45.33
2018-05-04T21:39:20.481Z,45.59
2018-05-04T21:41:48.069Z,45.84
2018-05-04T21:44:15.738Z,46.13
2018-05-04T21:46:43.345Z,45.97
2018-05-04T21:49:10.996Z,45.70
2018-05-04T21:51:38.621Z,45.84
2018-05-04T21:54:06.278Z,46.16
2018-05-04T21:56:33.916Z,46.22
2018-05-04T21:59:01.596Z,46.41
2018-05-04T22:01:29.163Z,46.57
2018-05-04T22:03:56.898Z,46.52
2018-05-04T22:06:24.537Z,46.90
2018-05-04T22:08:52.161Z,46.72
2018-05-04T22:11:19.841Z,46.76
2018-05-04T22:13:47.453Z,47.26
2018-05-04T22:16:15.139Z,47.77
2018-05-04T22:18:44.817Z,47.53
2018-05-04T22:21:13.251Z,47.69
2018-05-04T22:23:41.163Z,47.68
2018-05-04T22:26:09.188Z,47.55
2018-05-04T22:28:39.048Z,47.30
2018-05-04T22:31:08.036Z,47.09
2018-05-04T22:33:35.918Z,47.42
2018-05-04T22:36:04.988Z,47.01
2018-05-04T22:38:37.911Z,46.60
2018-05-04T22:41:09.980Z,47.03
2018-05-04T22:43:39.511Z,47.75
2018-05-04T22:46:08.588Z,47.61
2018-05-04T22:48:36.357Z,47.37
2018-05-04T22:51:05.569Z,47.79
2018-05-04T22:53:34.053Z,47.91
2018-05-04T22:56:03.156Z,48.41
2018-05-04T22:58:33.058Z,48.75
2018-05-04T23:01:01.019Z,48.75
2018-05-04T23:03:30.020Z,48.86
2018-05-04T23:05:58.187Z,49.42
2018-05-04T23:08:28.519Z,49.20
2018-05-04T23:10:57.005Z,49.71
2018-05-04T23:13:24.916Z,49.00
2018-05-04T23:15:55.663Z,49.59
2018-05-04T23:18:25.467Z,49.75
2018-05-04T23:20:54.517Z,49.68
2018-05-04T23:23:22.400Z,49.88
2018-05-04T23:25:50.341Z,49.86
2018-05-04T23:28:18.162Z,49.74
2018-05-04T23:30:45.935Z,50.10
2018-05-04T23:33:13.617Z,49.80
2018-05-04T23:35:41.335Z,49.96
2018-05-04T23:38:09.514Z,49.90
2018-05-04T23:40:37.446Z,50.12
2018-05-04T23:43:06.422Z,50.49
2018-05-04T23:45:34.525Z,50.23
2018-05-04T23:48:06.503Z,50.40
2018-05-04T23:50:41.892Z,50.10
2018-05-04T23:53:10.234Z,51.05
2018-05-04T23:55:38.383Z,51.62
2018-05-04T23:58:06.239Z,51.79
